Terminal Aerodrome Forecast
Issued by NWS

Home | Current Version | Previous Version | Graphics & Text | Print | Product List | Glossary On
Versions: 1 2 3 4 5 6 7 8 9 10 11 12 13 14 15 16 17
000
FTUS41 KCLE 301100
TAFFDY
TAF
KFDY 301120Z 3012/3112 26011KT P6SM SKC
     FM301500 26015G25KT P6SM SCT250
     FM302100 26014G22KT P6SM SCT120 BKN250
     FM302300 24005KT P6SM OVC120
     FM310200 24005KT P6SM OVC045
     FM310800 22014G20KT P6SM SCT045 BKN120=

USA.gov is the U.S. government's official web portal to all federal, state and local government web resources and services.